Osbornsville, New Jersey
Current Conditions -  °F | °C
As of 7:55 PM on Wednesday 22 Oct 2014 (Local Time) from KBLM Reporting Station
Overcast Overcast  
Wind Chill: 52°   Ceiling: 1500
Heat Index: 52°   Visibility: 5mi
Dew Point: 46°   Wind: 15mph
Humidity: 82%   Direction: 340°NNW
Pressure: 29.76"   Gusts: NA
Location:  40.0399°N, 74.1255°W
Report Text: KBLM 222355Z AUTO 34013KT 5SM FEW009 BKN015 OVC020 11/08 A2976 RMK AO1 P0009 60039 10130 20110 401400110 57010
Loading
Personal Weather Stations






























Interactive Weather Map
Tropical Storm Tracking
New forecast layout! Learn more

10-Day Weather Forecast

Advertisements
Track Severe Weather on mobile